createdAt,value
2022-09-01T00:01:48.768Z,55.10
2022-09-01T00:04:21.281Z,55.21
2022-09-01T00:06:50.752Z,55.30
2022-09-01T00:09:21.361Z,55.26
2022-09-01T00:11:53.619Z,55.48
2022-09-01T00:14:30.136Z,55.48
2022-09-01T00:17:00.507Z,55.40
2022-09-01T00:19:30.696Z,55.50
2022-09-01T00:21:59.224Z,55.44
2022-09-01T00:24:28.888Z,55.52
2022-09-01T00:26:57.529Z,55.45
2022-09-01T00:29:27.250Z,55.37
2022-09-01T00:31:55.837Z,55.52
2022-09-01T00:34:24.827Z,55.46
2022-09-01T00:36:54.900Z,55.45
2022-09-01T00:39:23.579Z,55.55
2022-09-01T00:41:52.217Z,55.58
2022-09-01T00:44:24.705Z,55.48
2022-09-01T00:46:57.786Z,55.27
2022-09-01T00:49:31.621Z,55.51
2022-09-01T00:52:08.613Z,55.44
2022-09-01T00:54:41.094Z,55.49
2022-09-01T00:57:12.875Z,55.43
2022-09-01T00:59:47.951Z,55.58
2022-09-01T01:02:17.003Z,55.57
2022-09-01T01:04:46.445Z,55.54
2022-09-01T01:07:17.417Z,55.58
2022-09-01T01:09:48.103Z,55.40
2022-09-01T01:12:17.690Z,55.68
2022-09-01T01:14:50.678Z,55.58
2022-09-01T01:17:19.941Z,55.73
2022-09-01T01:20:07.750Z,55.77
2022-09-01T01:23:02.464Z,55.75
2022-09-01T01:25:34.660Z,55.86
2022-09-01T01:28:13.605Z,55.92
2022-09-01T01:30:44.597Z,56.09
2022-09-01T01:33:13.708Z,56.07
2022-09-01T01:35:43.902Z,56.26
2022-09-01T01:38:12.835Z,56.39
2022-09-01T01:40:43.432Z,56.24
2022-09-01T01:43:20.227Z,56.21
2022-09-01T01:45:52.269Z,56.43
2022-09-01T01:48:23.045Z,56.41
2022-09-01T01:50:52.793Z,56.48
2022-09-01T01:53:22.007Z,56.37
2022-09-01T01:55:52.055Z,56.56
2022-09-01T01:58:22.631Z,56.49
2022-09-01T02:00:52.568Z,56.56
2022-09-01T02:03:25.290Z,56.65
2022-09-01T02:05:55.483Z,56.77
2022-09-01T02:08:27.029Z,56.67
2022-09-01T02:10:57.988Z,56.90
2022-09-01T02:13:31.536Z,56.71
2022-09-01T02:16:03.428Z,56.79
2022-09-01T02:18:36.248Z,56.81
2022-09-01T02:21:15.023Z,57.05
2022-09-01T02:23:45.025Z,57.14
2022-09-01T02:26:17.716Z,57.26
2022-09-01T02:28:54.851Z,57.16
2022-09-01T02:31:24.860Z,57.46
2022-09-01T02:33:54.630Z,57.23
2022-09-01T02:36:25.440Z,57.35
2022-09-01T02:38:56.853Z,57.45
2022-09-01T02:41:29.664Z,57.32
2022-09-01T02:44:02.509Z,57.51
2022-09-01T02:46:31.958Z,57.62
2022-09-01T02:49:01.009Z,57.61
2022-09-01T02:51:29.653Z,57.58
2022-09-01T02:53:58.500Z,57.64
2022-09-01T02:56:29.076Z,57.56
2022-09-01T02:58:57.518Z,57.55
2022-09-01T03:01:29.739Z,57.59
2022-09-01T03:04:00.491Z,57.64
2022-09-01T03:06:30.918Z,57.70
2022-09-01T03:09:01.019Z,57.88
2022-09-01T03:11:35.304Z,57.83
2022-09-01T03:14:05.296Z,57.90
2022-09-01T03:16:34.065Z,57.70
2022-09-01T03:19:04.331Z,57.75
2022-09-01T03:21:33.283Z,57.84
2022-09-01T03:24:03.926Z,57.68
2022-09-01T03:26:33.912Z,57.58
2022-09-01T03:29:02.508Z,57.52
2022-09-01T03:31:32.167Z,57.48
2022-09-01T03:34:01.497Z,57.47
2022-09-01T03:36:31.132Z,57.58
2022-09-01T03:38:59.614Z,57.58
2022-09-01T03:41:30.423Z,57.25
2022-09-01T03:44:01.224Z,57.37
2022-09-01T03:46:36.336Z,57.21
2022-09-01T03:49:07.690Z,57.26
2022-09-01T03:51:39.398Z,57.52
2022-09-01T03:54:08.578Z,57.57
2022-09-01T03:56:39.230Z,57.61
2022-09-01T03:59:17.300Z,57.80
2022-09-01T04:01:47.261Z,57.62
2022-09-01T04:04:16.827Z,57.70
2022-09-01T04:06:49.251Z,57.78
2022-09-01T04:09:17.681Z,57.69
2022-09-01T04:11:48.597Z,57.73
2022-09-01T04:14:18.786Z,57.69
2022-09-01T04:17:05.143Z,57.85
2022-09-01T04:19:37.182Z,58.14
2022-09-01T04:22:08.082Z,58.17
2022-09-01T04:24:36.608Z,58.03
2022-09-01T04:27:07.817Z,58.00
2022-09-01T04:29:38.511Z,58.20
2022-09-01T04:32:10.172Z,58.12
2022-09-01T04:34:41.929Z,58.26
2022-09-01T04:37:15.237Z,58.30
2022-09-01T04:39:52.487Z,58.55
2022-09-01T04:42:24.455Z,58.50
2022-09-01T04:44:57.948Z,58.35
2022-09-01T04:47:35.553Z,58.34
2022-09-01T04:50:13.180Z,58.35
2022-09-01T04:52:42.451Z,58.56
2022-09-01T04:55:18.088Z,58.48
2022-09-01T04:57:49.791Z,58.61
2022-09-01T05:00:25.124Z,58.58
2022-09-01T05:02:55.304Z,58.68
2022-09-01T05:05:25.055Z,58.61
2022-09-01T05:07:55.698Z,58.66
2022-09-01T05:10:30.281Z,58.73
2022-09-01T05:12:58.934Z,58.84
2022-09-01T05:15:31.193Z,58.89
2022-09-01T05:18:00.022Z,58.83
2022-09-01T05:20:30.650Z,58.69
2022-09-01T05:22:59.060Z,58.95
2022-09-01T05:25:27.588Z,58.95
2022-09-01T05:27:56.847Z,59.02
2022-09-01T05:30:28.831Z,59.11
2022-09-01T05:32:58.675Z,59.09
2022-09-01T05:35:32.397Z,59.17
2022-09-01T05:38:01.504Z,59.34
2022-09-01T05:40:30.157Z,59.16
2022-09-01T05:42:59.691Z,59.24
2022-09-01T05:45:36.455Z,59.12
2022-09-01T05:48:23.850Z,58.94
2022-09-01T05:50:56.415Z,58.91
2022-09-01T05:53:25.527Z,58.96
2022-09-01T05:55:57.758Z,59.07
2022-09-01T05:59:22.466Z,59.11
2022-09-01T06:01:22.402Z,59.50
2022-09-01T06:03:55.091Z,59.38
2022-09-01T06:06:24.763Z,59.47
2022-09-01T06:08:59.087Z,59.50
2022-09-01T06:11:33.259Z,59.54
2022-09-01T06:14:02.217Z,59.49
2022-09-01T06:16:31.722Z,59.48
2022-09-01T06:19:01.703Z,59.24
2022-09-01T06:21:31.839Z,59.06
2022-09-01T06:24:01.063Z,58.86
2022-09-01T06:26:32.557Z,58.74
2022-09-01T06:29:05.281Z,58.46
2022-09-01T06:31:39.436Z,58.45
2022-09-01T06:34:18.181Z,58.49
2022-09-01T06:36:48.748Z,58.61
2022-09-01T06:39:21.143Z,58.60
2022-09-01T06:41:53.304Z,58.80
2022-09-01T06:44:23.347Z,58.70
2022-09-01T06:46:53.337Z,58.78
2022-09-01T06:49:32.681Z,58.68
2022-09-01T06:52:01.557Z,58.54
2022-09-01T06:54:34.884Z,58.45
2022-09-01T06:59:54.349Z,58.09
2022-09-01T07:02:26.564Z,58.18
2022-09-01T07:04:57.267Z,57.92
2022-09-01T07:10:21.243Z,58.12
2022-09-01T07:13:07.049Z,57.95
2022-09-01T07:18:30.988Z,57.62
2022-09-01T07:21:04.538Z,57.46
2022-09-01T07:24:07.557Z,57.25
2022-09-01T07:26:29.583Z,57.26
2022-09-01T07:29:07.818Z,56.87
2022-09-01T07:34:40.297Z,56.57
2022-09-01T07:58:20.589Z,56.04
2022-09-01T08:00:51.534Z,56.09
2022-09-01T08:03:22.633Z,55.85
2022-09-01T08:05:55.950Z,55.71
2022-09-01T08:08:28.759Z,55.71
2022-09-01T08:17:33.056Z,55.19
2022-09-01T08:23:59.220Z,55.51
2022-09-01T08:26:29.024Z,55.39
2022-09-01T08:28:57.569Z,55.43
2022-09-01T08:31:31.378Z,55.37
2022-09-01T08:34:01.376Z,55.20
2022-09-01T08:36:32.727Z,54.98
2022-09-01T08:39:01.526Z,54.87
2022-09-01T08:41:46.415Z,54.68
2022-09-01T08:44:26.719Z,54.49
2022-09-01T08:46:59.787Z,54.38
2022-09-01T08:49:30.834Z,54.46
2022-09-01T08:52:07.416Z,54.30
2022-09-01T08:54:44.426Z,54.15
2022-09-01T08:57:19.162Z,53.91
2022-09-01T08:59:47.875Z,53.22
2022-09-01T09:02:41.517Z,52.17
2022-09-01T09:05:30.039Z,52.43
2022-09-01T09:08:13.263Z,52.38
2022-09-01T09:10:50.069Z,52.13
2022-09-01T09:13:27.410Z,51.80
2022-09-01T09:16:08.444Z,51.58
2022-09-01T09:18:54.721Z,51.38
2022-09-01T09:21:30.487Z,50.97
2022-09-01T09:24:03.999Z,50.94
2022-09-01T09:26:48.061Z,50.85
2022-09-01T09:29:16.590Z,50.32
2022-09-01T09:31:50.472Z,49.79
2022-09-01T09:34:34.668Z,49.90
2022-09-01T09:37:18.590Z,49.62
2022-09-01T09:39:47.874Z,49.78
2022-09-01T09:42:19.569Z,49.11
2022-09-01T09:44:53.223Z,48.42
2022-09-01T09:47:43.542Z,48.92
2022-09-01T09:50:23.532Z,47.78
2022-09-01T09:52:56.054Z,46.76
2022-09-01T09:55:30.503Z,47.25
2022-09-01T09:58:02.591Z,47.67
2022-09-01T10:00:34.586Z,47.58
2022-09-01T10:03:08.776Z,47.61
2022-09-01T10:05:44.364Z,45.73
2022-09-01T10:08:17.511Z,44.57
2022-09-01T10:10:57.814Z,44.26
2022-09-01T10:13:29.329Z,44.22
2022-09-01T10:16:03.699Z,44.16
2022-09-01T10:18:39.414Z,44.31
2022-09-01T10:21:13.511Z,44.09
2022-09-01T10:23:45.082Z,44.19
2022-09-01T10:26:18.898Z,43.74
2022-09-01T10:28:53.711Z,43.63
2022-09-01T10:31:23.859Z,43.71
2022-09-01T10:33:52.788Z,43.24
2022-09-01T10:36:24.683Z,43.41
2022-09-01T10:39:04.420Z,42.94
2022-09-01T10:41:59.581Z,41.72
2022-09-01T10:44:35.710Z,41.70
2022-09-01T10:47:13.636Z,40.87
2022-09-01T10:50:07.463Z,41.21
2022-09-01T10:53:01.003Z,40.56
2022-09-01T10:55:48.400Z,41.01
2022-09-01T11:02:27.590Z,40.01
2022-09-01T11:05:20.621Z,40.57
2022-09-01T11:08:15.041Z,40.60
2022-09-01T11:10:52.504Z,40.33
2022-09-01T11:13:36.879Z,38.93
2022-09-01T11:16:49.594Z,38.90
2022-09-01T11:19:39.476Z,39.00
2022-09-01T11:22:29.033Z,39.16
2022-09-01T11:25:40.307Z,39.55
2022-09-01T11:28:48.511Z,40.34
2022-09-01T11:31:41.884Z,40.49
2022-09-01T11:34:14.790Z,40.36
2022-09-01T11:36:56.670Z,39.84
2022-09-01T11:39:43.331Z,39.19
2022-09-01T11:42:19.381Z,39.10
2022-09-01T11:44:54.026Z,39.95
2022-09-01T11:47:28.969Z,40.25
2022-09-01T11:49:59.810Z,40.43
2022-09-01T11:52:31.871Z,40.31
2022-09-01T11:55:01.085Z,40.01
2022-09-01T11:57:32.453Z,39.46
2022-09-01T12:00:03.246Z,38.57
2022-09-01T12:02:36.667Z,38.94
2022-09-01T12:05:26.925Z,38.94
2022-09-01T12:07:55.852Z,38.80
2022-09-01T12:10:32.085Z,39.16
2022-09-01T12:13:06.166Z,39.32
2022-09-01T12:15:46.440Z,39.90
2022-09-01T12:18:28.572Z,39.23
2022-09-01T12:20:59.897Z,38.84
2022-09-01T12:23:30.648Z,38.47
2022-09-01T12:26:02.348Z,37.50
2022-09-01T12:28:33.920Z,37.96
2022-09-01T12:31:07.661Z,37.42
2022-09-01T12:33:38.364Z,37.71
2022-09-01T12:36:25.243Z,37.80
2022-09-01T12:38:54.675Z,38.20
2022-09-01T12:41:29.097Z,38.24
2022-09-01T12:43:57.901Z,38.08
2022-09-01T12:46:46.434Z,38.14
2022-09-01T12:49:21.956Z,38.06
2022-09-01T12:51:51.182Z,37.82
2022-09-01T12:54:27.140Z,37.60
2022-09-01T12:56:55.963Z,37.55
2022-09-01T12:59:36.245Z,37.30
2022-09-01T13:02:28.437Z,36.51
2022-09-01T13:05:27.158Z,35.76
2022-09-01T13:08:01.791Z,36.57
2022-09-01T13:10:39.993Z,36.21
2022-09-01T13:13:10.016Z,35.74
2022-09-01T13:15:40.795Z,35.87
2022-09-01T13:18:09.284Z,35.79
2022-09-01T13:20:39.548Z,36.27
2022-09-01T13:23:07.953Z,36.96
2022-09-01T13:25:36.565Z,37.04
2022-09-01T13:28:06.306Z,37.50
2022-09-01T13:30:36.321Z,37.51
2022-09-01T13:33:20.999Z,37.47
2022-09-01T13:35:53.479Z,36.58
2022-09-01T13:38:23.432Z,36.41
2022-09-01T13:40:53.169Z,36.06
2022-09-01T13:43:27.296Z,35.30
2022-09-01T13:45:56.003Z,35.18
2022-09-01T13:49:01.770Z,35.22
2022-09-01T13:51:18.189Z,35.06
2022-09-01T13:53:47.656Z,35.05
2022-09-01T13:56:16.404Z,35.06
2022-09-01T13:58:44.903Z,35.38
2022-09-01T14:01:17.017Z,35.62
2022-09-01T14:03:50.041Z,35.73
2022-09-01T14:06:22.554Z,35.97
2022-09-01T14:08:51.035Z,35.94
2022-09-01T14:11:20.240Z,35.96
2022-09-01T14:13:48.789Z,35.77
2022-09-01T14:16:17.770Z,35.66
2022-09-01T14:18:46.985Z,35.63
2022-09-01T14:21:17.519Z,34.70
2022-09-01T14:23:47.567Z,33.85
2022-09-01T14:26:18.276Z,34.21
2022-09-01T14:28:48.772Z,33.91
2022-09-01T14:31:19.403Z,33.28
2022-09-01T14:33:49.305Z,32.79
2022-09-01T14:36:23.531Z,33.05
2022-09-01T14:38:55.047Z,33.06
2022-09-01T14:41:26.467Z,33.40
2022-09-01T14:44:03.083Z,33.46
2022-09-01T14:46:34.577Z,33.40
2022-09-01T14:49:04.184Z,33.26
2022-09-01T14:54:24.536Z,33.83
2022-09-01T14:59:42.809Z,34.30
2022-09-01T15:02:11.805Z,34.13
2022-09-01T15:04:40.512Z,34.56
2022-09-01T15:07:09.568Z,34.72
2022-09-01T15:09:39.484Z,34.68
2022-09-01T15:12:09.722Z,34.98
2022-09-01T15:14:38.485Z,34.78
2022-09-01T15:17:07.415Z,35.02
2022-09-01T15:19:36.565Z,35.26
2022-09-01T15:22:07.356Z,35.46
2022-09-01T15:24:35.925Z,35.74
2022-09-01T15:27:06.996Z,35.28
2022-09-01T15:29:37.007Z,35.58
2022-09-01T15:32:05.711Z,35.69
2022-09-01T15:34:34.317Z,35.83
2022-09-01T15:37:02.937Z,35.91
2022-09-01T15:39:31.564Z,36.10
2022-09-01T15:42:08.563Z,35.98
2022-09-01T15:44:37.225Z,36.00
2022-09-01T15:47:05.919Z,36.24
2022-09-01T15:49:34.426Z,36.43
2022-09-01T15:52:03.020Z,36.70
2022-09-01T15:54:31.716Z,36.52
2022-09-01T15:57:00.335Z,36.31
2022-09-01T15:59:30.634Z,36.25
2022-09-01T16:01:59.383Z,36.24
2022-09-01T16:04:28.307Z,36.17
2022-09-01T16:06:57.073Z,36.20
2022-09-01T16:09:26.947Z,36.31
2022-09-01T16:11:55.988Z,36.16
2022-09-01T16:14:24.969Z,36.06
2022-09-01T16:17:04.308Z,36.35
2022-09-01T16:19:48.363Z,36.09
2022-09-01T16:22:24.076Z,36.03
2022-09-01T16:24:56.312Z,36.04
2022-09-01T16:27:32.217Z,36.23
2022-09-01T16:30:04.798Z,36.78
2022-09-01T16:32:34.761Z,36.58
2022-09-01T16:35:05.596Z,36.92
2022-09-01T16:37:45.629Z,36.83
2022-09-01T16:40:31.486Z,36.84
2022-09-01T16:43:08.087Z,37.09
2022-09-01T16:45:46.564Z,37.05
2022-09-01T16:48:23.164Z,37.24
2022-09-01T16:50:57.607Z,37.37
2022-09-01T16:53:40.140Z,37.56
2022-09-01T16:56:12.621Z,37.26
2022-09-01T16:58:49.361Z,37.45
2022-09-01T17:01:31.205Z,37.68
2022-09-01T17:04:17.040Z,37.66
2022-09-01T17:06:58.524Z,37.98
2022-09-01T17:09:33.762Z,37.38
2022-09-01T17:12:15.937Z,37.59
2022-09-01T17:14:49.691Z,37.36
2022-09-01T17:17:26.632Z,37.99
2022-09-01T17:19:57.366Z,38.00
2022-09-01T17:22:27.404Z,37.96
2022-09-01T17:31:17.407Z,38.50
2022-09-01T17:34:07.111Z,38.79
2022-09-01T17:36:48.658Z,38.74
2022-09-01T17:39:29.484Z,38.91
2022-09-01T17:42:01.154Z,38.97
2022-09-01T17:44:36.906Z,39.23
2022-09-01T17:47:13.295Z,39.15
2022-09-01T17:49:52.143Z,39.35
2022-09-01T17:52:34.471Z,38.96
2022-09-01T17:55:09.311Z,39.33
2022-09-01T17:57:44.168Z,39.44
2022-09-01T18:00:23.680Z,39.46
2022-09-01T18:03:15.324Z,39.84
2022-09-01T18:05:47.238Z,39.91
2022-09-01T18:08:33.475Z,40.13
2022-09-01T18:11:09.084Z,40.21
2022-09-01T18:13:53.828Z,40.73
2022-09-01T18:20:11.292Z,41.21
2022-09-01T18:22:47.058Z,41.15
2022-09-01T18:25:21.790Z,40.99
2022-09-01T18:27:51.805Z,41.30
2022-09-01T18:30:42.728Z,41.34
2022-09-01T18:33:26.910Z,41.57
2022-09-01T18:36:07.922Z,41.69
2022-09-01T18:38:45.144Z,41.68
2022-09-01T18:41:45.613Z,41.81
2022-09-01T18:44:31.673Z,41.72
2022-09-01T18:47:05.784Z,41.76
2022-09-01T18:49:48.344Z,41.90
2022-09-01T18:52:25.495Z,42.87
2022-09-01T18:55:05.925Z,42.25
2022-09-01T18:57:40.251Z,42.37
2022-09-01T19:00:17.880Z,42.37
2022-09-01T19:03:05.231Z,42.70
2022-09-01T19:05:55.685Z,42.93
2022-09-01T19:08:44.547Z,43.12
2022-09-01T19:11:19.784Z,43.21
2022-09-01T19:14:06.179Z,43.46
2022-09-01T19:16:50.779Z,43.72
2022-09-01T19:19:35.289Z,43.78
2022-09-01T19:22:05.885Z,43.83
2022-09-01T19:24:40.665Z,43.75
2022-09-01T19:27:13.911Z,43.91
2022-09-01T19:29:53.533Z,43.91
2022-09-01T19:32:24.369Z,43.87
2022-09-01T19:34:58.207Z,44.01
2022-09-01T19:37:28.834Z,44.01
2022-09-01T19:39:58.642Z,43.88
2022-09-01T19:42:35.890Z,44.08
2022-09-01T19:45:14.349Z,44.21
2022-09-01T19:47:50.151Z,44.20
2022-09-01T19:50:24.520Z,44.33
2022-09-01T19:52:58.287Z,44.52
2022-09-01T19:55:31.726Z,45.06
2022-09-01T19:58:06.697Z,44.79
2022-09-01T20:00:51.543Z,44.94
2022-09-01T20:03:28.396Z,44.85
2022-09-01T20:06:02.541Z,44.90
2022-09-01T20:08:38.303Z,44.68
2022-09-01T20:11:13.896Z,44.95
2022-09-01T20:14:17.872Z,45.03
2022-09-01T20:16:53.157Z,45.22
2022-09-01T20:19:31.826Z,45.30
2022-09-01T20:22:14.502Z,45.43
2022-09-01T20:24:45.291Z,45.89
2022-09-01T20:27:31.430Z,45.76
2022-09-01T20:30:11.724Z,45.99
2022-09-01T20:35:25.405Z,46.21
2022-09-01T20:38:02.338Z,46.34
2022-09-01T20:40:35.645Z,46.36
2022-09-01T20:43:14.230Z,46.41
2022-09-01T20:45:42.962Z,46.58
2022-09-01T20:48:16.093Z,46.56
2022-09-01T20:50:53.211Z,46.72
2022-09-01T20:53:35.684Z,46.89
2022-09-01T20:56:10.951Z,47.05
2022-09-01T20:58:45.605Z,47.38
2022-09-01T21:01:22.363Z,47.46
2022-09-01T21:04:06.444Z,47.57
2022-09-01T21:06:43.542Z,47.74
2022-09-01T21:09:17.692Z,47.52
2022-09-01T21:11:53.867Z,47.87
2022-09-01T21:14:35.287Z,47.96
2022-09-01T21:17:12.900Z,48.26
2022-09-01T21:19:50.217Z,48.47
2022-09-01T21:22:22.172Z,48.53
2022-09-01T21:24:51.262Z,48.58
2022-09-01T21:27:23.814Z,49.00
2022-09-01T21:29:58.384Z,49.02
2022-09-01T21:32:29.250Z,49.26
2022-09-01T21:34:59.884Z,49.37
2022-09-01T21:37:29.616Z,49.35
2022-09-01T21:39:58.776Z,49.47
2022-09-01T21:42:29.960Z,49.50
2022-09-01T21:44:59.935Z,49.40
2022-09-01T21:47:29.103Z,49.53
2022-09-01T21:49:58.998Z,49.73
2022-09-01T21:52:27.743Z,49.71
2022-09-01T21:54:56.228Z,49.76
2022-09-01T21:57:25.082Z,49.90
2022-09-01T21:59:53.555Z,50.06
2022-09-01T22:02:22.153Z,50.08
2022-09-01T22:04:58.734Z,50.21
2022-09-01T22:07:27.280Z,50.40
2022-09-01T22:09:57.912Z,50.63
2022-09-01T22:12:26.550Z,50.75
2022-09-01T22:14:54.937Z,50.73
2022-09-01T22:17:23.635Z,50.91
2022-09-01T22:19:53.131Z,51.12
2022-09-01T22:22:23.040Z,51.02
2022-09-01T22:24:51.599Z,51.21
2022-09-01T22:27:20.099Z,51.21
2022-09-01T22:29:48.579Z,51.42
2022-09-01T22:32:17.035Z,51.46
2022-09-01T22:34:45.687Z,51.41
2022-09-01T22:37:14.391Z,51.50
2022-09-01T22:39:44.374Z,51.74
2022-09-01T22:42:12.876Z,51.84
2022-09-01T22:44:41.659Z,51.80
2022-09-01T22:47:10.160Z,51.69
2022-09-01T22:49:38.874Z,51.71
2022-09-01T22:52:07.409Z,51.78
2022-09-01T22:54:36.291Z,51.59
2022-09-01T22:57:06.551Z,51.44
2022-09-01T22:59:35.382Z,51.46
2022-09-01T23:02:03.910Z,51.55
2022-09-01T23:04:33.136Z,51.60
2022-09-01T23:07:01.947Z,51.55
2022-09-01T23:09:31.260Z,51.66
2022-09-01T23:11:59.732Z,51.66
2022-09-01T23:14:30.307Z,51.80
2022-09-01T23:16:59.041Z,51.81
2022-09-01T23:19:27.520Z,51.87
2022-09-01T23:21:56.259Z,52.02
2022-09-01T23:24:24.917Z,52.13
2022-09-01T23:26:53.395Z,52.09
2022-09-01T23:29:22.519Z,52.28
2022-09-01T23:31:52.591Z,52.34
2022-09-01T23:34:21.164Z,52.39
2022-09-01T23:36:49.948Z,52.44
2022-09-01T23:39:18.331Z,52.42
2022-09-01T23:41:48.094Z,52.51
2022-09-01T23:44:17.124Z,52.45
2022-09-01T23:46:47.788Z,52.75
2022-09-01T23:49:19.557Z,52.92
2022-09-01T23:51:49.584Z,52.91
2022-09-01T23:54:18.116Z,52.80
2022-09-01T23:56:46.771Z,53.03
2022-09-01T23:59:15.680Z,53.14
